createdAt,value
2018-08-30T00:01:31.481Z,15.60
2018-08-30T00:04:00.043Z,15.50
2018-08-30T00:06:28.561Z,15.50
2018-08-30T00:08:57.099Z,15.60
2018-08-30T00:11:25.611Z,15.50
2018-08-30T00:13:54.132Z,15.50
2018-08-30T00:16:22.679Z,15.50
2018-08-30T00:18:51.189Z,15.50
2018-08-30T00:21:19.791Z,15.40
2018-08-30T00:23:48.315Z,15.40
2018-08-30T00:26:16.817Z,15.40
2018-08-30T00:28:45.344Z,15.40
2018-08-30T00:31:13.887Z,15.40
2018-08-30T00:33:42.378Z,15.30
2018-08-30T00:36:10.932Z,15.30
2018-08-30T00:38:39.407Z,15.30
2018-08-30T00:41:07.943Z,15.30
2018-08-30T00:43:36.536Z,15.20
2018-08-30T00:46:05.121Z,15.20
2018-08-30T00:48:33.591Z,15.20
2018-08-30T00:51:02.117Z,15.20
2018-08-30T00:53:30.681Z,15.10
2018-08-30T00:55:59.178Z,15.10
2018-08-30T00:58:27.698Z,15.10
2018-08-30T01:00:56.202Z,15.10
2018-08-30T01:03:24.716Z,15.00
2018-08-30T01:05:53.239Z,15.00
2018-08-30T01:08:21.732Z,15.00
2018-08-30T01:10:50.299Z,15.00
2018-08-30T01:13:18.777Z,15.00
2018-08-30T01:15:47.315Z,15.00
2018-08-30T01:18:15.831Z,15.00
2018-08-30T01:20:44.342Z,14.90
2018-08-30T01:23:12.906Z,14.90
2018-08-30T01:25:41.459Z,14.90
2018-08-30T01:28:09.931Z,14.90
2018-08-30T01:30:38.444Z,14.80
2018-08-30T01:33:06.963Z,14.90
2018-08-30T01:35:35.499Z,14.80
2018-08-30T01:38:03.990Z,14.80
2018-08-30T01:40:32.501Z,14.80
2018-08-30T01:43:01.027Z,14.80
2018-08-30T01:45:29.568Z,14.80
2018-08-30T01:47:58.094Z,14.80
2018-08-30T01:50:26.639Z,14.80
2018-08-30T01:52:55.119Z,14.80
2018-08-30T01:55:23.626Z,14.80
2018-08-30T01:57:52.157Z,14.80
2018-08-30T02:00:20.639Z,14.90
2018-08-30T02:02:49.168Z,14.90
2018-08-30T02:05:17.895Z,14.90
2018-08-30T02:07:46.399Z,14.90
2018-08-30T02:10:14.896Z,14.90
2018-08-30T02:12:43.431Z,14.90
2018-08-30T02:15:11.900Z,14.90
2018-08-30T02:17:40.446Z,15.00
2018-08-30T02:20:08.952Z,15.00
2018-08-30T02:22:37.465Z,15.00
2018-08-30T02:25:06.054Z,15.00
2018-08-30T02:27:34.575Z,15.00
2018-08-30T02:30:03.149Z,15.00
2018-08-30T02:32:31.779Z,15.00
2018-08-30T02:35:00.292Z,15.00
2018-08-30T02:37:28.770Z,15.00
2018-08-30T02:39:57.285Z,14.90
2018-08-30T02:42:25.763Z,14.90
2018-08-30T02:44:54.267Z,14.90
2018-08-30T02:47:22.804Z,14.90
2018-08-30T02:49:51.343Z,14.80
2018-08-30T02:52:19.809Z,14.80
2018-08-30T02:54:48.262Z,14.80
2018-08-30T02:57:16.803Z,14.90
2018-08-30T02:59:45.323Z,14.90
2018-08-30T03:02:13.829Z,14.90
2018-08-30T03:04:42.286Z,14.90
2018-08-30T03:07:11.128Z,14.90
2018-08-30T03:09:39.652Z,14.90
2018-08-30T03:12:08.132Z,14.90
2018-08-30T03:14:36.787Z,15.00
2018-08-30T03:17:05.356Z,15.00
2018-08-30T03:19:33.884Z,15.00
2018-08-30T03:22:02.423Z,15.00
2018-08-30T03:24:30.936Z,15.00
2018-08-30T03:26:59.434Z,14.90
2018-08-30T03:29:28.004Z,15.00
2018-08-30T03:31:56.488Z,15.00
2018-08-30T03:34:25.001Z,14.90
2018-08-30T03:36:53.464Z,14.90
2018-08-30T03:39:21.977Z,14.90
2018-08-30T03:41:50.463Z,14.90
2018-08-30T03:44:19.135Z,14.90
2018-08-30T03:46:47.737Z,14.90
2018-08-30T03:49:16.243Z,14.80
2018-08-30T03:51:44.723Z,14.80
2018-08-30T03:54:13.261Z,14.80
2018-08-30T03:56:41.790Z,14.80
2018-08-30T03:59:10.286Z,14.80
2018-08-30T04:01:38.750Z,14.70
2018-08-30T04:04:07.369Z,14.80
2018-08-30T04:06:35.960Z,14.80
2018-08-30T04:09:06.612Z,14.80
2018-08-30T04:11:35.124Z,14.80
2018-08-30T04:14:03.650Z,14.80
2018-08-30T04:16:32.187Z,14.80
2018-08-30T04:19:06.073Z,14.90
2018-08-30T04:21:35.317Z,14.90
2018-08-30T04:24:05.318Z,14.90
2018-08-30T04:26:33.804Z,14.90
2018-08-30T04:29:02.934Z,14.90
2018-08-30T04:31:31.536Z,14.90
2018-08-30T04:34:00.077Z,14.90
2018-08-30T04:36:28.551Z,14.90
2018-08-30T04:38:58.045Z,14.90
2018-08-30T04:41:26.808Z,14.90
2018-08-30T04:43:55.308Z,15.00
2018-08-30T04:46:23.860Z,15.00
2018-08-30T04:48:52.404Z,15.00
2018-08-30T04:51:20.969Z,15.10
2018-08-30T04:53:49.484Z,15.10
2018-08-30T04:56:17.996Z,15.20
2018-08-30T04:58:46.505Z,15.20
2018-08-30T05:01:15.015Z,15.30
2018-08-30T05:03:43.638Z,15.30
2018-08-30T05:06:12.285Z,15.30
2018-08-30T05:08:40.801Z,15.30
2018-08-30T05:11:09.395Z,15.40
2018-08-30T05:13:37.922Z,15.40
2018-08-30T05:16:06.480Z,15.40
2018-08-30T05:18:34.939Z,15.50
2018-08-30T05:21:03.494Z,15.50
2018-08-30T05:23:31.962Z,15.50
2018-08-30T05:26:00.556Z,15.50
2018-08-30T05:28:29.115Z,15.50
2018-08-30T05:30:58.079Z,15.50
2018-08-30T05:33:26.583Z,15.50
2018-08-30T05:35:55.104Z,15.60
2018-08-30T05:38:23.656Z,15.60
2018-08-30T05:40:52.215Z,15.50
2018-08-30T05:43:20.785Z,15.50
2018-08-30T05:45:49.409Z,15.50
2018-08-30T05:48:17.920Z,15.50
2018-08-30T05:50:46.433Z,15.50
2018-08-30T05:53:15.018Z,15.40
2018-08-30T05:55:43.778Z,15.40
2018-08-30T05:58:12.279Z,15.40
2018-08-30T06:00:40.988Z,15.40
2018-08-30T06:03:09.499Z,15.40
2018-08-30T06:05:38.007Z,15.40
2018-08-30T06:08:06.516Z,15.40
2018-08-30T06:10:35.083Z,15.50
2018-08-30T06:13:03.697Z,15.50
2018-08-30T06:15:32.199Z,15.60
2018-08-30T06:18:00.788Z,15.70
2018-08-30T06:20:29.485Z,15.80
2018-08-30T06:22:57.986Z,15.90
2018-08-30T06:25:26.472Z,16.00
2018-08-30T06:27:55.021Z,16.10
2018-08-30T06:30:23.518Z,16.20
2018-08-30T06:32:52.043Z,16.30
2018-08-30T06:35:20.594Z,16.40
2018-08-30T06:37:49.152Z,16.50
2018-08-30T06:40:17.732Z,16.60
2018-08-30T06:42:46.246Z,16.60
2018-08-30T06:45:14.748Z,16.60
2018-08-30T06:47:43.327Z,16.60
2018-08-30T06:50:11.791Z,16.60
2018-08-30T06:52:40.329Z,16.60
2018-08-30T06:55:08.872Z,16.50
2018-08-30T06:57:37.397Z,16.60
2018-08-30T07:00:06.332Z,16.70
2018-08-30T07:02:34.873Z,16.70
2018-08-30T07:05:03.422Z,16.80
2018-08-30T07:07:31.997Z,16.80
2018-08-30T07:10:00.542Z,16.90
2018-08-30T07:12:29.073Z,17.00
2018-08-30T07:14:57.674Z,17.10
2018-08-30T07:17:26.115Z,17.10
2018-08-30T07:19:54.571Z,17.10
2018-08-30T07:22:23.348Z,17.10
2018-08-30T07:24:51.824Z,17.20
2018-08-30T07:27:20.366Z,17.30
2018-08-30T07:29:48.871Z,17.30
2018-08-30T07:32:17.494Z,17.50
2018-08-30T07:34:46.303Z,17.50
2018-08-30T07:37:14.715Z,17.50
2018-08-30T07:39:43.263Z,17.50
2018-08-30T07:42:11.741Z,17.50
2018-08-30T07:44:40.289Z,17.50
2018-08-30T07:47:08.800Z,17.50
2018-08-30T07:49:37.327Z,17.50
2018-08-30T07:52:05.828Z,17.50
2018-08-30T07:54:34.367Z,17.60
2018-08-30T07:57:02.934Z,17.80
2018-08-30T07:59:31.383Z,17.90
2018-08-30T08:01:59.896Z,18.20
2018-08-30T08:04:28.383Z,18.40
2018-08-30T08:06:56.939Z,18.50
2018-08-30T08:09:25.440Z,18.40
2018-08-30T08:11:53.922Z,18.30
2018-08-30T08:14:22.435Z,18.20
2018-08-30T08:16:50.937Z,18.20
2018-08-30T08:19:19.451Z,18.20
2018-08-30T08:21:47.967Z,18.20
2018-08-30T08:24:16.435Z,18.20
2018-08-30T08:26:44.950Z,18.20
2018-08-30T08:29:13.508Z,18.20
2018-08-30T08:31:41.999Z,18.30
2018-08-30T08:34:10.513Z,18.50
2018-08-30T08:36:39.012Z,18.60
2018-08-30T08:39:07.559Z,18.70
2018-08-30T08:41:36.083Z,18.80
2018-08-30T08:44:04.610Z,18.80
2018-08-30T08:46:33.280Z,18.80
2018-08-30T08:49:01.780Z,18.90
2018-08-30T08:51:30.434Z,19.00
2018-08-30T08:53:58.912Z,18.80
2018-08-30T08:56:27.427Z,18.10
2018-08-30T08:58:55.986Z,17.60
2018-08-30T09:01:24.497Z,17.20
2018-08-30T09:03:52.983Z,16.90
2018-08-30T09:06:21.523Z,16.80
2018-08-30T09:08:50.008Z,16.70
2018-08-30T09:11:18.537Z,16.60
2018-08-30T09:13:47.063Z,16.70
2018-08-30T09:16:15.563Z,16.80
2018-08-30T09:18:44.105Z,17.00
2018-08-30T09:21:12.644Z,17.20
2018-08-30T09:23:41.159Z,17.60
2018-08-30T09:26:09.671Z,17.90
2018-08-30T09:28:38.191Z,17.90
2018-08-30T09:31:06.752Z,17.80
2018-08-30T09:33:35.251Z,17.70
2018-08-30T09:36:03.779Z,17.70
2018-08-30T09:38:32.278Z,17.90
2018-08-30T09:41:00.746Z,18.20
2018-08-30T09:43:29.235Z,18.40
2018-08-30T09:45:57.727Z,18.70
2018-08-30T09:48:26.231Z,19.10
2018-08-30T09:50:54.702Z,19.20
2018-08-30T09:53:23.217Z,19.30
2018-08-30T09:55:51.731Z,19.30
2018-08-30T09:58:20.239Z,19.20
2018-08-30T10:00:54.103Z,18.90
2018-08-30T10:03:22.643Z,18.70
2018-08-30T10:05:51.172Z,18.90
2018-08-30T10:08:19.664Z,19.20
2018-08-30T10:10:48.183Z,19.40
2018-08-30T10:13:16.908Z,19.50
2018-08-30T10:15:45.453Z,19.40
2018-08-30T10:18:13.942Z,19.30
2018-08-30T10:20:42.455Z,19.20
2018-08-30T10:23:10.932Z,19.20
2018-08-30T10:25:39.472Z,19.10
2018-08-30T10:28:07.966Z,19.00
2018-08-30T10:30:36.498Z,18.20
2018-08-30T10:33:05.244Z,17.40
2018-08-30T10:35:33.784Z,16.70
2018-08-30T10:38:02.268Z,16.30
2018-08-30T10:40:30.768Z,16.10
2018-08-30T10:42:59.358Z,16.00
2018-08-30T10:45:27.773Z,16.00
2018-08-30T10:47:56.320Z,16.00
2018-08-30T10:50:24.861Z,16.10
2018-08-30T10:52:53.577Z,16.20
2018-08-30T10:55:22.133Z,16.40
2018-08-30T10:57:50.621Z,16.60
2018-08-30T11:00:19.176Z,16.90
2018-08-30T11:02:47.747Z,17.20
2018-08-30T11:05:16.325Z,17.10
2018-08-30T11:07:44.868Z,17.10
2018-08-30T11:10:13.433Z,17.10
2018-08-30T11:12:41.965Z,16.90
2018-08-30T11:15:10.495Z,16.90
2018-08-30T11:17:39.012Z,16.90
2018-08-30T11:20:07.561Z,17.00
2018-08-30T11:22:36.117Z,17.00
2018-08-30T11:25:04.692Z,17.10
2018-08-30T11:27:33.194Z,17.40
2018-08-30T11:30:02.992Z,17.50
2018-08-30T11:32:31.533Z,17.50
2018-08-30T11:35:00.074Z,17.70
2018-08-30T11:37:28.638Z,17.90
2018-08-30T11:39:57.135Z,18.20
2018-08-30T11:42:25.657Z,18.40
2018-08-30T11:44:54.216Z,18.60
2018-08-30T11:47:22.741Z,18.70
2018-08-30T11:49:51.210Z,18.80
2018-08-30T11:52:19.906Z,18.90
2018-08-30T11:54:48.392Z,19.00
2018-08-30T11:57:16.888Z,18.80
2018-08-30T11:59:45.424Z,18.60
2018-08-30T12:02:13.947Z,18.50
2018-08-30T12:04:42.522Z,18.40
2018-08-30T12:07:11.020Z,18.40
2018-08-30T12:09:39.638Z,18.40
2018-08-30T12:12:08.168Z,18.30
2018-08-30T12:14:36.691Z,18.40
2018-08-30T12:17:05.317Z,18.50
2018-08-30T12:19:33.900Z,18.60
2018-08-30T12:22:02.384Z,18.60
2018-08-30T12:24:30.860Z,18.60
2018-08-30T12:26:59.468Z,18.50
2018-08-30T12:29:28.653Z,18.50
2018-08-30T12:31:57.277Z,18.30
2018-08-30T12:34:25.947Z,18.30
2018-08-30T12:36:54.464Z,18.20
2018-08-30T12:39:22.939Z,18.30
2018-08-30T12:41:51.700Z,18.30
2018-08-30T12:44:20.211Z,18.40
2018-08-30T12:46:48.792Z,18.50
2018-08-30T12:49:17.337Z,18.70
2018-08-30T12:51:45.973Z,18.80
2018-08-30T12:54:14.555Z,18.80
2018-08-30T12:56:43.116Z,18.90
2018-08-30T12:59:16.498Z,19.10
2018-08-30T13:01:45.494Z,19.30
2018-08-30T13:04:14.333Z,19.60
2018-08-30T13:06:45.812Z,19.90
2018-08-30T13:09:15.814Z,19.90
2018-08-30T13:11:44.148Z,19.90
2018-08-30T13:14:12.701Z,19.80
2018-08-30T13:16:41.660Z,19.70
2018-08-30T13:19:10.395Z,19.70
2018-08-30T13:21:38.827Z,19.90
2018-08-30T13:24:07.468Z,20.10
2018-08-30T13:26:35.912Z,20.30
2018-08-30T13:29:04.529Z,20.10
2018-08-30T13:31:33.076Z,19.80
2018-08-30T13:34:02.420Z,19.80
2018-08-30T13:36:31.710Z,19.80
2018-08-30T13:39:00.492Z,19.80
2018-08-30T13:41:29.137Z,19.70
2018-08-30T13:43:57.731Z,19.70
2018-08-30T13:46:26.335Z,19.60
2018-08-30T13:48:54.946Z,19.80
2018-08-30T13:51:23.629Z,19.90
2018-08-30T13:53:51.976Z,19.90
2018-08-30T13:56:20.710Z,19.80
2018-08-30T13:58:49.452Z,19.80
2018-08-30T14:01:18.273Z,19.90
2018-08-30T14:03:46.533Z,19.90
2018-08-30T14:06:15.034Z,20.00
2018-08-30T14:08:43.605Z,20.30
2018-08-30T14:11:12.224Z,20.50
2018-08-30T14:13:40.709Z,20.40
2018-08-30T14:16:09.131Z,20.40
2018-08-30T14:18:37.553Z,20.30
2018-08-30T14:21:06.052Z,20.00
2018-08-30T14:23:34.662Z,19.90
2018-08-30T14:26:03.185Z,19.80
2018-08-30T14:28:31.828Z,19.80
2018-08-30T14:31:00.406Z,19.90
2018-08-30T14:33:28.984Z,20.20
2018-08-30T14:35:57.446Z,20.40
2018-08-30T14:38:26.011Z,20.50
2018-08-30T14:40:54.537Z,20.50
2018-08-30T14:43:23.127Z,20.50
2018-08-30T14:45:51.652Z,20.30
2018-08-30T14:48:20.250Z,20.10
2018-08-30T14:50:48.926Z,20.10
2018-08-30T14:53:17.602Z,20.20
2018-08-30T14:55:46.021Z,20.30
2018-08-30T14:58:14.634Z,20.30
2018-08-30T15:00:43.162Z,20.20
2018-08-30T15:03:11.709Z,19.90
2018-08-30T15:05:40.324Z,19.80
2018-08-30T15:08:08.798Z,19.80
2018-08-30T15:10:37.291Z,20.00
2018-08-30T15:13:06.142Z,20.10
2018-08-30T15:15:34.647Z,19.90
2018-08-30T15:18:03.262Z,19.70
2018-08-30T15:20:32.068Z,19.60
2018-08-30T15:23:00.605Z,19.60
2018-08-30T15:25:29.146Z,19.70
2018-08-30T15:27:57.628Z,19.80
2018-08-30T15:30:26.193Z,19.80
2018-08-30T15:32:54.737Z,19.90
2018-08-30T15:35:23.359Z,20.10
2018-08-30T15:37:51.780Z,20.30
2018-08-30T15:40:20.290Z,20.40
2018-08-30T15:42:48.817Z,20.50
2018-08-30T15:45:17.299Z,20.50
2018-08-30T15:47:45.804Z,20.40
2018-08-30T15:50:14.408Z,20.20
2018-08-30T15:52:42.939Z,20.00
2018-08-30T15:55:11.468Z,19.90
2018-08-30T15:57:40.041Z,19.80
2018-08-30T16:00:08.979Z,19.70
2018-08-30T16:02:37.468Z,19.80
2018-08-30T16:05:06.065Z,19.70
2018-08-30T16:07:34.583Z,19.50
2018-08-30T16:10:03.167Z,19.40
2018-08-30T16:12:31.697Z,19.30
2018-08-30T16:15:00.185Z,19.20
2018-08-30T16:17:28.795Z,19.10
2018-08-30T16:19:57.302Z,18.90
2018-08-30T16:22:35.734Z,18.80
2018-08-30T16:25:04.232Z,18.90
2018-08-30T16:27:39.061Z,18.80
2018-08-30T16:30:07.692Z,18.70
2018-08-30T16:32:36.179Z,18.60
2018-08-30T16:35:04.752Z,18.50
2018-08-30T16:37:33.208Z,18.40
2018-08-30T16:40:01.836Z,18.20
2018-08-30T16:42:30.312Z,18.10
2018-08-30T16:44:59.689Z,18.00
2018-08-30T16:47:28.221Z,17.90
2018-08-30T16:49:56.713Z,17.80
2018-08-30T16:52:25.232Z,17.70
2018-08-30T16:54:53.836Z,17.60
2018-08-30T16:57:23.620Z,17.60
2018-08-30T16:59:52.417Z,17.50
2018-08-30T17:02:21.101Z,17.50
2018-08-30T17:04:49.636Z,17.50
2018-08-30T17:07:18.448Z,17.40
2018-08-30T17:09:46.968Z,17.40
2018-08-30T17:12:15.607Z,17.30
2018-08-30T17:14:44.129Z,17.30
2018-08-30T17:17:12.824Z,17.20
2018-08-30T17:19:41.209Z,17.10
2018-08-30T17:22:09.770Z,17.00
2018-08-30T17:24:38.305Z,17.00
2018-08-30T17:27:06.837Z,16.90
2018-08-30T17:29:35.340Z,16.80
2018-08-30T17:32:03.887Z,16.80
2018-08-30T17:34:32.400Z,16.70
2018-08-30T17:37:00.996Z,16.70
2018-08-30T17:39:29.789Z,16.70
2018-08-30T17:41:58.333Z,16.90
2018-08-30T17:44:26.819Z,17.10
2018-08-30T17:46:55.361Z,17.20
2018-08-30T17:49:23.841Z,17.30
2018-08-30T17:51:52.448Z,17.40
2018-08-30T17:54:20.969Z,17.40
2018-08-30T17:56:49.567Z,17.40
2018-08-30T17:59:19.557Z,17.20
2018-08-30T18:01:49.127Z,16.90
2018-08-30T18:04:17.870Z,16.60
2018-08-30T18:06:46.500Z,16.30
2018-08-30T18:09:15.151Z,16.00
2018-08-30T18:11:43.668Z,15.70
2018-08-30T18:14:15.073Z,15.60
2018-08-30T18:16:43.732Z,15.40
2018-08-30T18:19:12.262Z,15.20
2018-08-30T18:21:40.845Z,15.00
2018-08-30T18:24:09.398Z,14.80
2018-08-30T18:26:37.906Z,14.60
2018-08-30T18:29:06.577Z,14.50
2018-08-30T18:31:35.089Z,14.30
2018-08-30T18:34:03.618Z,14.20
2018-08-30T18:36:32.101Z,14.10
2018-08-30T18:39:00.620Z,14.00
2018-08-30T18:41:29.104Z,13.90
2018-08-30T18:43:57.612Z,13.70
2018-08-30T18:46:26.142Z,13.70
2018-08-30T18:48:54.653Z,13.60
2018-08-30T18:51:23.125Z,13.50
2018-08-30T18:53:51.600Z,13.40
2018-08-30T18:56:20.121Z,13.40
2018-08-30T18:58:48.636Z,13.30
2018-08-30T19:01:17.159Z,13.30
2018-08-30T19:03:45.638Z,13.30
2018-08-30T19:06:14.153Z,13.30
2018-08-30T19:08:42.876Z,13.20
2018-08-30T19:11:11.477Z,13.20
2018-08-30T19:13:39.993Z,13.20
2018-08-30T19:16:13.957Z,13.10
2018-08-30T19:18:47.705Z,13.10
2018-08-30T19:21:16.212Z,13.00
2018-08-30T19:23:44.713Z,13.10
2018-08-30T19:26:13.224Z,13.10
2018-08-30T19:28:41.692Z,13.10
2018-08-30T19:31:10.221Z,13.10
2018-08-30T19:33:38.711Z,13.10
2018-08-30T19:36:12.668Z,13.10
2018-08-30T19:38:41.204Z,13.30
2018-08-30T19:41:14.924Z,13.40
2018-08-30T19:43:43.386Z,13.40
2018-08-30T19:46:11.941Z,13.50
2018-08-30T19:48:40.474Z,13.60
2018-08-30T19:51:09.019Z,13.70
2018-08-30T19:53:37.560Z,13.70
2018-08-30T19:56:06.368Z,13.80
2018-08-30T19:58:35.020Z,13.80
2018-08-30T20:01:03.554Z,13.80
2018-08-30T20:03:32.169Z,13.80
2018-08-30T20:06:00.792Z,13.70
2018-08-30T20:08:29.461Z,13.70
2018-08-30T20:10:58.005Z,13.60
2018-08-30T20:13:26.512Z,13.60
2018-08-30T20:15:55.649Z,13.50
2018-08-30T20:18:24.165Z,13.50
2018-08-30T20:20:52.734Z,13.40
2018-08-30T20:23:21.328Z,13.30
2018-08-30T20:25:49.960Z,13.20
2018-08-30T20:28:18.556Z,13.10
2018-08-30T20:30:47.104Z,13.10
2018-08-30T20:33:15.659Z,13.00
2018-08-30T20:35:44.238Z,13.00
2018-08-30T20:38:12.748Z,12.90
2018-08-30T20:40:41.288Z,12.80
2018-08-30T20:43:09.769Z,12.70
2018-08-30T20:45:38.340Z,12.70
2018-08-30T20:48:06.949Z,12.70
2018-08-30T20:50:35.457Z,12.70
2018-08-30T20:53:04.428Z,12.60
2018-08-30T20:55:32.928Z,12.50
2018-08-30T20:58:01.411Z,12.30
2018-08-30T21:00:29.970Z,12.20
2018-08-30T21:02:58.542Z,12.10
2018-08-30T21:05:27.073Z,12.10
2018-08-30T21:07:55.615Z,12.20
2018-08-30T21:10:24.343Z,12.20
2018-08-30T21:12:53.318Z,12.20
2018-08-30T21:15:22.939Z,12.10
2018-08-30T21:17:57.516Z,12.10
2018-08-30T21:20:26.790Z,12.00
2018-08-30T21:22:56.699Z,11.90
2018-08-30T21:25:26.194Z,11.70
2018-08-30T21:27:54.795Z,11.60
2018-08-30T21:30:24.358Z,11.50
2018-08-30T21:32:54.120Z,11.40
2018-08-30T21:35:23.212Z,11.40
2018-08-30T21:37:52.588Z,11.30
2018-08-30T21:40:21.121Z,11.20
2018-08-30T21:42:51.303Z,11.20
2018-08-30T21:45:19.856Z,11.10
2018-08-30T21:47:48.367Z,11.00
2018-08-30T21:50:16.860Z,11.10
2018-08-30T21:52:46.501Z,11.10
2018-08-30T21:55:16.443Z,11.00
2018-08-30T21:57:44.979Z,11.00
2018-08-30T22:00:14.677Z,10.90
2018-08-30T22:02:43.769Z,10.80
2018-08-30T22:05:12.557Z,10.80
2018-08-30T22:07:41.060Z,10.70
2018-08-30T22:10:10.209Z,10.80
2018-08-30T22:12:38.730Z,10.70
2018-08-30T22:15:07.234Z,10.70
2018-08-30T22:17:35.841Z,10.70
2018-08-30T22:20:04.653Z,10.70
2018-08-30T22:22:33.381Z,10.70
2018-08-30T22:25:01.903Z,10.60
2018-08-30T22:27:30.545Z,10.60
2018-08-30T22:29:59.050Z,10.60
2018-08-30T22:32:27.588Z,10.70
2018-08-30T22:34:56.120Z,10.70
2018-08-30T22:37:24.603Z,10.80
2018-08-30T22:39:53.157Z,10.90
2018-08-30T22:42:21.681Z,11.00
2018-08-30T22:44:50.164Z,11.20
2018-08-30T22:47:18.685Z,11.30
2018-08-30T22:49:47.348Z,11.40
2018-08-30T22:52:15.901Z,11.60
2018-08-30T22:54:44.422Z,11.60
2018-08-30T22:57:12.947Z,11.70
2018-08-30T22:59:41.493Z,11.80
2018-08-30T23:02:09.979Z,11.90
2018-08-30T23:04:38.538Z,12.00
2018-08-30T23:07:07.033Z,12.00
2018-08-30T23:09:35.587Z,12.00
2018-08-30T23:12:04.094Z,12.10
2018-08-30T23:14:32.631Z,12.10
2018-08-30T23:17:01.186Z,12.20
2018-08-30T23:19:29.744Z,12.30
2018-08-30T23:21:58.301Z,12.30
2018-08-30T23:24:26.843Z,12.40
2018-08-30T23:26:55.369Z,12.40
2018-08-30T23:29:23.842Z,12.50
2018-08-30T23:31:52.355Z,12.60
2018-08-30T23:34:20.858Z,12.70
2018-08-30T23:36:49.372Z,12.90
2018-08-30T23:39:17.856Z,13.10
2018-08-30T23:41:46.377Z,13.20
2018-08-30T23:44:14.897Z,13.20
2018-08-30T23:46:43.358Z,13.30
2018-08-30T23:49:11.867Z,13.30
2018-08-30T23:51:40.364Z,13.30
2018-08-30T23:54:08.884Z,13.20
2018-08-30T23:56:37.400Z,13.20
2018-08-30T23:59:17.172Z,13.20
